createdAt,value
2022-08-05T00:00:51.773Z,22.84
2022-08-05T00:03:18.607Z,20.94
2022-08-05T00:06:04.714Z,22.12
2022-08-05T00:08:34.773Z,21.21
2022-08-05T00:11:05.148Z,21.38
2022-08-05T00:13:53.020Z,20.43
2022-08-05T00:16:36.077Z,21.02
2022-08-05T00:19:07.940Z,21.33
2022-08-05T00:21:35.832Z,20.34
2022-08-05T00:24:10.546Z,21.87
2022-08-05T00:26:39.103Z,21.10
2022-08-05T00:29:13.709Z,22.10
2022-08-05T00:31:53.786Z,23.08
2022-08-05T00:34:53.817Z,21.76
2022-08-05T00:37:14.555Z,22.13
2022-08-05T00:39:57.930Z,20.91
2022-08-05T00:42:42.255Z,21.29
2022-08-05T00:45:15.196Z,20.97
2022-08-05T00:47:56.302Z,22.37
2022-08-05T00:50:25.403Z,23.78
2022-08-05T00:52:55.140Z,23.74
2022-08-05T00:55:23.026Z,23.10
2022-08-05T00:58:01.131Z,23.63
2022-08-05T01:00:30.195Z,23.52
2022-08-05T01:02:59.904Z,22.41
2022-08-05T01:05:27.835Z,23.13
2022-08-05T01:08:42.059Z,21.93
2022-08-05T01:10:51.574Z,23.99
2022-08-05T01:13:58.390Z,22.12
2022-08-05T01:16:26.522Z,21.36
2022-08-05T01:19:01.116Z,21.94
2022-08-05T01:21:50.607Z,21.55
2022-08-05T01:24:20.554Z,23.34
2022-08-05T01:26:57.767Z,22.79
2022-08-05T01:29:34.905Z,22.50
2022-08-05T01:32:06.793Z,22.85
2022-08-05T01:34:54.813Z,21.41
2022-08-05T01:37:32.880Z,21.08
2022-08-05T01:40:06.118Z,21.26
2022-08-05T01:42:36.769Z,21.88
2022-08-05T01:45:08.182Z,21.54
2022-08-05T01:47:39.270Z,21.27
2022-08-05T01:50:15.225Z,22.34
2022-08-05T01:52:44.370Z,20.73
2022-08-05T01:55:15.538Z,21.34
2022-08-05T01:58:11.255Z,20.98
2022-08-05T02:00:36.972Z,21.36
2022-08-05T02:03:34.450Z,21.20
2022-08-05T02:06:24.218Z,21.12
2022-08-05T02:08:58.221Z,23.07
2022-08-05T02:11:33.339Z,21.25
2022-08-05T02:14:17.525Z,21.32
2022-08-05T02:16:52.445Z,22.31
2022-08-05T02:19:35.050Z,21.26
2022-08-05T02:22:25.939Z,21.19
2022-08-05T02:25:02.164Z,20.30
2022-08-05T02:27:59.411Z,24.72
2022-08-05T02:30:21.469Z,21.96
2022-08-05T02:32:52.639Z,22.75
2022-08-05T02:35:27.805Z,22.98
2022-08-05T02:38:02.347Z,21.72
2022-08-05T02:40:31.408Z,21.47
2022-08-05T02:43:00.891Z,22.17
2022-08-05T02:45:51.369Z,21.38
2022-08-05T02:48:17.467Z,23.16
2022-08-05T02:50:48.474Z,21.42
2022-08-05T02:53:19.625Z,20.80
2022-08-05T02:55:59.484Z,21.13
2022-08-05T02:58:28.900Z,21.53
2022-08-05T03:01:01.898Z,20.68
2022-08-05T03:03:33.739Z,20.68
2022-08-05T03:06:55.218Z,20.85
2022-08-05T03:09:05.173Z,21.13
2022-08-05T03:11:53.659Z,22.19
2022-08-05T03:14:21.475Z,22.18
2022-08-05T03:16:48.467Z,20.81
2022-08-05T03:19:16.948Z,21.33
2022-08-05T03:22:00.219Z,21.63
2022-08-05T03:24:30.763Z,21.33
2022-08-05T03:26:59.374Z,21.18
2022-08-05T03:29:45.796Z,23.10
2022-08-05T03:32:15.510Z,22.39
2022-08-05T03:34:49.592Z,21.75
2022-08-05T03:37:19.774Z,22.46
2022-08-05T03:40:00.835Z,21.99
2022-08-05T03:42:32.305Z,22.25
2022-08-05T03:45:22.108Z,23.59
2022-08-05T03:47:51.552Z,22.89
2022-08-05T03:50:18.464Z,22.33
2022-08-05T03:55:52.226Z,22.44
2022-08-05T03:56:01.714Z,23.10
2022-08-05T03:58:38.210Z,23.06
2022-08-05T04:01:11.248Z,22.46
2022-08-05T04:04:08.914Z,22.05
2022-08-05T04:06:33.635Z,22.53
2022-08-05T04:09:02.638Z,22.26
2022-08-05T04:11:47.570Z,22.71
2022-08-05T04:14:19.387Z,22.92
2022-08-05T04:16:58.672Z,22.24
2022-08-05T04:19:25.734Z,22.25
2022-08-05T04:22:10.039Z,22.38
2022-08-05T04:24:44.142Z,22.71
2022-08-05T04:27:20.251Z,23.27
2022-08-05T04:29:59.804Z,23.08
2022-08-05T04:32:33.397Z,22.65
2022-08-05T04:35:02.302Z,22.69
2022-08-05T04:38:01.142Z,23.25
2022-08-05T04:40:19.938Z,22.53
2022-08-05T04:42:46.907Z,21.90
2022-08-05T04:45:31.047Z,21.92
2022-08-05T04:48:18.410Z,22.56
2022-08-05T04:51:03.074Z,24.38
2022-08-05T04:53:38.695Z,22.20
2022-08-05T04:56:32.979Z,23.38
2022-08-05T04:58:55.645Z,23.24
2022-08-05T05:02:08.386Z,23.37
2022-08-05T05:04:10.347Z,28.11
2022-08-05T05:06:44.212Z,22.76
2022-08-05T05:09:13.343Z,23.10
2022-08-05T05:11:53.192Z,25.08
2022-08-05T05:14:27.945Z,23.72
2022-08-05T05:17:01.194Z,23.86
2022-08-05T05:19:36.335Z,21.86
2022-08-05T05:22:23.077Z,22.64
2022-08-05T05:24:57.493Z,22.51
2022-08-05T05:27:41.563Z,23.38
2022-08-05T05:30:15.626Z,22.76
2022-08-05T05:33:01.048Z,23.31
2022-08-05T05:35:34.422Z,22.35
2022-08-05T05:38:09.448Z,21.82
2022-08-05T05:40:48.122Z,21.54
2022-08-05T05:43:27.497Z,22.34
2022-08-05T05:46:08.490Z,23.38
2022-08-05T05:48:44.621Z,23.80
2022-08-05T05:51:18.878Z,23.64
2022-08-05T05:53:54.167Z,24.36
2022-08-05T05:56:33.396Z,23.02
2022-08-05T05:59:03.881Z,22.88
2022-08-05T06:01:57.740Z,21.68
2022-08-05T06:04:25.195Z,22.38
2022-08-05T06:06:52.087Z,23.76
2022-08-05T06:09:25.852Z,24.00
2022-08-05T06:12:02.872Z,20.48
2022-08-05T06:14:31.026Z,19.38
2022-08-05T06:16:59.181Z,20.52
2022-08-05T06:19:34.820Z,20.61
2022-08-05T06:22:03.956Z,21.49
2022-08-05T06:24:31.921Z,19.93
2022-08-05T06:26:58.871Z,20.00
2022-08-05T06:29:49.660Z,19.36
2022-08-05T06:32:24.873Z,19.39
2022-08-05T06:34:58.814Z,19.05
2022-08-05T06:37:55.970Z,19.12
2022-08-05T06:40:18.569Z,18.88
2022-08-05T06:42:52.313Z,19.71
2022-08-05T06:46:02.846Z,18.88
2022-08-05T06:48:36.023Z,19.16
2022-08-05T06:50:55.680Z,17.77
2022-08-05T06:53:28.475Z,17.87
2022-08-05T06:55:57.441Z,17.35
2022-08-05T06:58:35.397Z,19.38
2022-08-05T07:01:06.102Z,19.25
2022-08-05T07:03:33.533Z,18.93
2022-08-05T07:06:05.992Z,18.71
2022-08-05T07:08:47.467Z,17.90
2022-08-05T07:11:22.208Z,17.12
2022-08-05T07:14:15.434Z,17.44
2022-08-05T07:17:58.749Z,19.10
2022-08-05T07:20:23.080Z,16.35
2022-08-05T07:22:28.308Z,14.85
2022-08-05T07:25:22.779Z,16.40
2022-08-05T07:27:57.276Z,17.00
2022-08-05T07:30:31.823Z,17.32
2022-08-05T07:33:00.961Z,16.79
2022-08-05T07:36:02.655Z,17.26
2022-08-05T07:38:33.803Z,16.80
2022-08-05T07:42:07.210Z,16.61
2022-08-05T07:43:58.289Z,16.98
2022-08-05T07:46:27.054Z,17.19
2022-08-05T07:49:01.398Z,16.30
2022-08-05T07:51:41.094Z,18.44
2022-08-05T07:54:26.508Z,18.15
2022-08-05T07:57:01.272Z,15.98
2022-08-05T07:59:41.502Z,15.72
2022-08-05T08:02:16.095Z,18.39
2022-08-05T08:04:48.371Z,17.67
2022-08-05T08:07:17.857Z,17.55
2022-08-05T08:09:45.963Z,16.97
2022-08-05T08:12:33.627Z,17.92
2022-08-05T08:15:03.688Z,18.18
2022-08-05T08:17:32.724Z,19.41
2022-08-05T08:20:22.791Z,18.68
2022-08-05T08:22:59.566Z,19.59
2022-08-05T08:25:59.225Z,18.15
2022-08-05T08:28:18.830Z,17.70
2022-08-05T08:31:03.061Z,18.45
2022-08-05T08:33:36.132Z,17.08
2022-08-05T08:36:38.520Z,16.61
2022-08-05T08:38:55.975Z,17.48
2022-08-05T08:41:52.102Z,16.36
2022-08-05T08:45:20.239Z,17.82
2022-08-05T08:47:21.646Z,17.70
2022-08-05T08:50:22.251Z,16.55
2022-08-05T08:52:51.841Z,16.74
2022-08-05T08:55:31.974Z,17.32
2022-08-05T08:58:08.878Z,16.14
2022-08-05T09:00:36.327Z,17.71
2022-08-05T09:03:06.579Z,17.44
2022-08-05T09:05:38.901Z,15.19
2022-08-05T09:08:26.678Z,17.85
2022-08-05T09:10:58.388Z,16.39
2022-08-05T09:13:31.856Z,16.37
2022-08-05T09:16:14.719Z,16.60
2022-08-05T09:18:44.532Z,15.23
2022-08-05T09:21:21.251Z,17.35
2022-08-05T09:24:10.166Z,15.94
2022-08-05T09:26:37.239Z,15.02
2022-08-05T09:29:07.346Z,16.55
2022-08-05T09:32:40.811Z,15.98
2022-08-05T09:34:22.734Z,16.99
2022-08-05T09:36:56.085Z,15.06
2022-08-05T09:39:39.507Z,15.01
2022-08-05T09:42:24.351Z,15.25
2022-08-05T09:44:57.460Z,15.73
2022-08-05T09:47:55.624Z,14.86
2022-08-05T09:50:37.513Z,16.90
2022-08-05T09:53:05.086Z,16.09
2022-08-05T09:55:57.054Z,16.31
2022-08-05T09:58:24.234Z,15.27
2022-08-05T10:01:00.019Z,15.94
2022-08-05T10:03:56.755Z,13.63
2022-08-05T10:06:20.645Z,16.86
2022-08-05T10:08:50.340Z,15.83
2022-08-05T10:11:20.835Z,17.79
2022-08-05T10:13:49.243Z,15.83
2022-08-05T10:16:33.783Z,16.91
2022-08-05T10:19:08.483Z,15.91
2022-08-05T10:21:40.768Z,14.46
2022-08-05T10:24:13.734Z,16.55
2022-08-05T10:26:51.619Z,16.66
2022-08-05T10:29:23.477Z,15.02
2022-08-05T10:32:51.665Z,14.75
2022-08-05T10:35:00.653Z,14.99
2022-08-05T10:37:37.530Z,15.53
2022-08-05T10:40:19.693Z,16.77
2022-08-05T10:42:52.627Z,16.17
2022-08-05T10:45:40.131Z,15.50
2022-08-05T10:48:52.499Z,16.08
2022-08-05T10:51:29.185Z,16.37
2022-08-05T10:54:05.860Z,15.02
2022-08-05T10:56:57.255Z,13.96
2022-08-05T11:00:04.148Z,15.70
2022-08-05T11:02:38.326Z,14.63
2022-08-05T11:05:09.401Z,14.82
2022-08-05T11:08:02.999Z,17.71
2022-08-05T11:10:38.542Z,14.49
2022-08-05T11:13:40.791Z,15.58
2022-08-05T11:16:47.506Z,15.81
2022-08-05T11:20:17.625Z,13.74
2022-08-05T11:22:49.906Z,15.45
2022-08-05T11:26:04.585Z,13.62
2022-08-05T11:28:36.029Z,13.00
2022-08-05T11:31:06.216Z,16.48
2022-08-05T11:33:48.756Z,15.19
2022-08-05T11:36:34.376Z,15.36
2022-08-05T11:39:06.956Z,14.24
2022-08-05T11:42:01.159Z,15.63
2022-08-05T11:44:52.957Z,13.91
2022-08-05T11:47:15.223Z,14.92
2022-08-05T11:49:50.893Z,13.96
2022-08-05T11:52:29.176Z,13.99
2022-08-05T11:54:58.286Z,14.64
2022-08-05T11:58:08.334Z,13.26
2022-08-05T12:00:31.789Z,16.00
2022-08-05T12:03:16.736Z,15.33
2022-08-05T12:05:59.602Z,16.51
2022-08-05T12:08:26.871Z,14.50
2022-08-05T12:10:56.263Z,13.48
2022-08-05T12:13:47.811Z,13.94
2022-08-05T12:16:14.558Z,13.43
2022-08-05T12:18:49.367Z,13.22
2022-08-05T12:21:30.311Z,13.37
2022-08-05T12:24:07.645Z,13.12
2022-08-05T12:26:37.235Z,14.46
2022-08-05T12:29:15.975Z,13.00
2022-08-05T12:32:02.131Z,13.10
2022-08-05T12:34:35.680Z,15.66
2022-08-05T12:37:17.428Z,14.10
2022-08-05T12:39:51.073Z,14.94
2022-08-05T12:42:20.687Z,12.54
2022-08-05T12:44:47.972Z,14.62
2022-08-05T12:47:27.541Z,13.54
2022-08-05T12:50:02.443Z,12.23
2022-08-05T12:52:38.861Z,12.61
2022-08-05T12:55:22.649Z,12.82
2022-08-05T12:58:49.211Z,13.45
2022-08-05T13:02:04.441Z,15.06
2022-08-05T13:03:42.311Z,14.20
2022-08-05T13:06:17.350Z,13.75
2022-08-05T13:08:52.170Z,12.25
2022-08-05T13:11:59.951Z,12.05
2022-08-05T13:14:24.979Z,14.57
2022-08-05T13:17:09.291Z,12.75
2022-08-05T13:19:40.359Z,13.50
2022-08-05T13:22:27.673Z,13.28
2022-08-05T13:24:57.447Z,13.11
2022-08-05T13:27:39.563Z,13.90
2022-08-05T13:30:32.995Z,14.99
2022-08-05T13:32:57.365Z,14.31
2022-08-05T13:35:31.468Z,14.93
2022-08-05T13:38:14.502Z,14.77
2022-08-05T13:40:51.860Z,17.16
2022-08-05T13:43:22.025Z,15.86
2022-08-05T13:45:50.828Z,17.24
2022-08-05T13:48:57.601Z,15.38
2022-08-05T13:51:10.130Z,14.82
2022-08-05T13:53:47.720Z,14.91
2022-08-05T13:56:18.874Z,16.89
2022-08-05T13:58:52.952Z,15.85
2022-08-05T14:01:25.842Z,17.05
2022-08-05T14:04:26.756Z,15.31
2022-08-05T14:06:58.636Z,17.06
2022-08-05T14:09:43.002Z,16.49
2022-08-05T14:12:18.354Z,15.14
2022-08-05T14:15:00.204Z,17.21
2022-08-05T14:17:28.361Z,16.44
2022-08-05T14:20:00.921Z,15.91
2022-08-05T14:22:34.244Z,16.30
2022-08-05T14:25:02.622Z,17.15
2022-08-05T14:27:33.368Z,15.87
2022-08-05T14:30:01.067Z,16.38
2022-08-05T14:32:28.576Z,16.04
2022-08-05T14:34:56.868Z,15.27
2022-08-05T14:37:45.383Z,16.24
2022-08-05T14:40:14.033Z,15.75
2022-08-05T14:42:41.544Z,16.84
2022-08-05T14:45:10.091Z,15.26
2022-08-05T14:48:03.829Z,15.04
2022-08-05T14:50:25.325Z,16.93
2022-08-05T14:52:58.485Z,17.90
2022-08-05T14:55:38.346Z,16.36
2022-08-05T14:58:12.205Z,16.08
2022-08-05T15:00:59.407Z,15.77
2022-08-05T15:03:33.017Z,17.32
2022-08-05T15:06:07.576Z,17.91
2022-08-05T15:08:59.081Z,18.89
2022-08-05T15:11:51.752Z,17.71
2022-08-05T15:14:33.232Z,15.10
2022-08-05T15:17:03.751Z,15.23
2022-08-05T15:19:31.019Z,15.24
2022-08-05T15:22:00.272Z,15.62
2022-08-05T15:24:28.419Z,15.52
2022-08-05T15:26:56.074Z,16.18
2022-08-05T15:29:29.735Z,18.14
2022-08-05T15:32:03.073Z,17.70
2022-08-05T15:34:33.148Z,17.01
2022-08-05T15:37:06.249Z,15.25
2022-08-05T15:41:00.281Z,16.66
2022-08-05T15:42:53.549Z,16.91
2022-08-05T15:45:11.508Z,16.83
2022-08-05T15:47:39.736Z,17.46
2022-08-05T15:50:08.180Z,17.20
2022-08-05T15:52:54.670Z,15.11
2022-08-05T15:55:24.828Z,14.54
2022-08-05T15:57:52.814Z,14.30
2022-08-05T16:00:26.304Z,13.30
2022-08-05T16:02:59.991Z,14.96
2022-08-05T16:05:28.363Z,14.89
2022-08-05T16:07:55.558Z,16.33
2022-08-05T16:10:25.502Z,15.78
2022-08-05T16:12:56.134Z,15.45
2022-08-05T16:15:24.885Z,15.50
2022-08-05T16:17:59.412Z,15.34
2022-08-05T16:20:27.946Z,14.80
2022-08-05T16:22:55.109Z,15.19
2022-08-05T16:25:33.821Z,15.80
2022-08-05T16:28:05.983Z,16.76
2022-08-05T16:30:34.305Z,15.78
2022-08-05T16:33:03.222Z,15.56
2022-08-05T16:35:32.389Z,16.20
2022-08-05T16:38:15.304Z,15.59
2022-08-05T16:40:52.078Z,15.77
2022-08-05T16:43:25.072Z,16.16
2022-08-05T16:46:03.965Z,15.96
2022-08-05T16:48:36.756Z,15.21
2022-08-05T16:51:09.287Z,16.29
2022-08-05T16:54:05.276Z,16.00
2022-08-05T16:56:29.233Z,16.26
2022-08-05T16:58:58.301Z,15.89
2022-08-05T17:01:25.680Z,17.33
2022-08-05T17:03:52.634Z,16.07
2022-08-05T17:06:20.258Z,16.12
2022-08-05T17:08:52.788Z,16.33
2022-08-05T17:11:23.682Z,18.08
2022-08-05T17:14:00.398Z,17.81
2022-08-05T17:16:38.368Z,17.04
2022-08-05T17:19:07.355Z,18.03
2022-08-05T17:21:37.681Z,18.39
2022-08-05T17:24:19.457Z,18.17
2022-08-05T17:26:56.759Z,17.54
2022-08-05T17:29:33.467Z,17.48
2022-08-05T17:32:17.592Z,18.12
2022-08-05T17:34:53.354Z,17.86
2022-08-05T17:37:39.716Z,18.22
2022-08-05T17:40:10.883Z,18.63
2022-08-05T17:42:43.054Z,19.09
2022-08-05T17:45:21.055Z,19.61
2022-08-05T17:47:54.565Z,18.32
2022-08-05T17:50:28.315Z,19.25
2022-08-05T17:53:08.525Z,18.62
2022-08-05T17:55:39.707Z,19.86
2022-08-05T17:58:13.500Z,18.78
2022-08-05T18:00:47.828Z,20.00
2022-08-05T18:06:11.474Z,18.98
2022-08-05T18:08:44.566Z,19.13
2022-08-05T18:11:24.669Z,20.27
2022-08-05T18:14:03.298Z,20.25
2022-08-05T18:16:31.648Z,20.43
2022-08-05T18:18:58.694Z,19.57
2022-08-05T18:21:26.477Z,20.13
2022-08-05T18:23:55.479Z,19.65
2022-08-05T18:26:29.291Z,18.54
2022-08-05T18:28:59.034Z,19.90
2022-08-05T18:31:35.321Z,19.67
2022-08-05T18:34:03.940Z,21.22
2022-08-05T18:36:35.439Z,20.63
2022-08-05T18:39:03.923Z,20.33
2022-08-05T18:41:57.051Z,19.70
2022-08-05T18:44:33.255Z,20.15
2022-08-05T18:47:03.917Z,19.24
2022-08-05T18:49:58.238Z,20.30
2022-08-05T18:52:33.659Z,20.35
2022-08-05T18:55:06.444Z,19.99
2022-08-05T18:57:49.974Z,20.33
2022-08-05T19:00:28.496Z,22.37
2022-08-05T19:02:56.700Z,22.33
2022-08-05T19:06:13.097Z,23.07
2022-08-05T19:08:13.737Z,21.58
2022-08-05T19:10:42.316Z,21.40
2022-08-05T19:13:12.428Z,21.42
2022-08-05T19:15:59.734Z,20.54
2022-08-05T19:18:30.092Z,19.25
2022-08-05T19:20:59.605Z,21.23
2022-08-05T19:24:05.239Z,19.99
2022-08-05T19:26:14.657Z,20.70
2022-08-05T19:28:43.630Z,20.65
2022-08-05T19:31:13.447Z,20.23
2022-08-05T19:33:48.419Z,19.98
2022-08-05T19:36:23.897Z,22.54
2022-08-05T19:38:51.404Z,23.00
2022-08-05T19:41:21.867Z,23.45
2022-08-05T19:44:13.615Z,25.82
2022-08-05T19:46:41.309Z,27.17
2022-08-05T19:49:12.431Z,26.78
2022-08-05T19:52:05.556Z,27.36
2022-08-05T19:54:32.906Z,27.31
2022-08-05T19:57:09.762Z,26.72
2022-08-05T19:59:59.274Z,24.23
2022-08-05T20:02:26.998Z,24.20
2022-08-05T20:04:58.979Z,24.63
2022-08-05T20:07:45.723Z,25.31
2022-08-05T20:10:14.700Z,27.73
2022-08-05T20:12:46.407Z,26.24
2022-08-05T20:15:48.058Z,24.75
2022-08-05T20:18:10.114Z,25.52
2022-08-05T20:20:55.270Z,25.68
2022-08-05T20:23:40.502Z,25.77
2022-08-05T20:26:15.273Z,26.03
2022-08-05T20:28:45.660Z,25.54
2022-08-05T20:31:12.875Z,24.70
2022-08-05T20:33:42.535Z,24.48
2022-08-05T20:36:11.239Z,23.88
2022-08-05T20:38:40.805Z,24.56
2022-08-05T20:41:26.716Z,24.05
2022-08-05T20:44:00.037Z,23.38
2022-08-05T20:46:30.142Z,23.02
2022-08-05T20:48:57.042Z,22.31
2022-08-05T20:51:23.904Z,24.53
2022-08-05T20:53:56.248Z,24.19
2022-08-05T20:56:29.874Z,22.52
2022-08-05T20:59:19.192Z,25.41
2022-08-05T21:01:48.047Z,24.00
2022-08-05T21:04:18.120Z,23.80
2022-08-05T21:06:45.638Z,22.77
2022-08-05T21:09:15.979Z,23.35
2022-08-05T21:12:06.807Z,22.95
2022-08-05T21:14:34.667Z,22.30
2022-08-05T21:17:05.507Z,22.77
2022-08-05T21:19:46.742Z,22.88
2022-08-05T21:22:21.927Z,22.76
2022-08-05T21:24:51.857Z,23.15
2022-08-05T21:27:25.431Z,24.36
2022-08-05T21:29:58.261Z,24.92
2022-08-05T21:32:29.231Z,28.09
2022-08-05T21:35:16.928Z,26.07
2022-08-05T21:37:53.019Z,25.91
2022-08-05T21:40:24.756Z,26.64
2022-08-05T21:42:53.740Z,24.40
2022-08-05T21:45:24.527Z,27.21
2022-08-05T21:47:55.684Z,25.73
2022-08-05T21:50:27.479Z,24.16
2022-08-05T21:53:04.355Z,24.43
2022-08-05T21:56:04.156Z,25.69
2022-08-05T21:58:20.222Z,27.20
2022-08-05T22:00:51.996Z,27.65
2022-08-05T22:03:20.529Z,26.30
2022-08-05T22:06:06.437Z,25.62
2022-08-05T22:08:35.108Z,24.54
2022-08-05T22:11:01.860Z,24.49
2022-08-05T22:14:34.342Z,23.65
2022-08-05T22:16:41.133Z,23.38
2022-08-05T22:19:56.391Z,25.74
2022-08-05T22:21:54.418Z,24.52
2022-08-05T22:24:52.485Z,25.61
2022-08-05T22:28:10.700Z,23.24
2022-08-05T22:30:55.531Z,25.25
2022-08-05T22:33:58.041Z,25.26
2022-08-05T22:36:15.342Z,25.62
2022-08-05T22:38:48.720Z,25.56
2022-08-05T22:41:26.363Z,27.40
2022-08-05T22:44:04.629Z,26.72
2022-08-05T22:46:32.055Z,26.65
2022-08-05T22:48:59.503Z,27.77
2022-08-05T22:52:04.363Z,26.27
2022-08-05T22:54:13.405Z,25.12
2022-08-05T22:56:40.745Z,24.08
2022-08-05T22:59:44.236Z,24.17
2022-08-05T23:02:06.142Z,23.36
2022-08-05T23:04:35.455Z,23.28
2022-08-05T23:07:03.115Z,27.37
2022-08-05T23:09:58.070Z,28.56
2022-08-05T23:12:18.215Z,27.70
2022-08-05T23:14:45.082Z,25.09
2022-08-05T23:17:34.158Z,26.21
2022-08-05T23:20:16.410Z,24.82
2022-08-05T23:22:47.781Z,24.15
2022-08-05T23:25:53.470Z,25.23
2022-08-05T23:28:06.854Z,23.88
2022-08-05T23:30:39.825Z,25.88
2022-08-05T23:33:16.435Z,25.27
2022-08-05T23:35:56.069Z,24.69
2022-08-05T23:38:24.226Z,25.05
2022-08-05T23:40:52.854Z,25.71
2022-08-05T23:43:25.667Z,27.74
2022-08-05T23:46:19.962Z,25.38
2022-08-05T23:49:00.746Z,24.38
2022-08-05T23:51:53.648Z,26.36
2022-08-05T23:54:34.265Z,27.31
2022-08-05T23:57:06.421Z,26.66
